ULLI/LED METAR and TAF weather

Enter ICAO airport designator
Station Type Date Time Source
ULLI METAR 2021/09/27 06:30 UTC NOAA

ULLI 270630Z 27002MPS 9999 OVC046 09/08 Q1029 R88/090060 NOSIG


Station Type Date Time Source
ULLI Decoded METAR 2021/09/27 06:30 UTC NOAA

St. Peterburg, Russia (ULLI) 59-58N 030-18E 6M
Sep 27, 2021 - 02:30 AM EDT / 2021.09.27 0630 UTC
Wind: from the W (270 degrees) at 4 MPH (4 KT):0
Visibility: greater than 7 mile(s):0
Sky conditions: overcast
Temperature: 48 F (9 C)
Dew Point: 46 F (8 C)
Relative Humidity: 93%
Pressure (altimeter): 30.39 in. Hg (1029 hPa)
ob: ULLI 270630Z 27002MPS 9999 OVC046 09/08 Q1029 R88/090060 NOSIG
cycle: 6

Station Type Date Time Source
ULLI TAF 2021/09/27 06:24 UTC NOAA

TAF TAF ULLI 270456Z 2706/2806 02004MPS 9999 SCT007 BKN030
TEMPO 2721/2805 0500 FG SCT003

Example: see airport list